This is the latest recevied weather packets stored in our database for station/object DK4EP-10. If no packets are shown the sender has not sent any weather packets the latest 10 day(s).
| Time | Temp. | Humidity | Pressure | Rain* | Wind** | Luminosity | Snow |
|---|---|---|---|---|---|---|---|
| 1777592830 | 3.33° C | 100% | 1006 hPa | - | - | - | - |
| 1777591028 | 3.33° C | 100% | 1006 hPa | - | - | - | - |
| 1777590126 | 3.33° C | 100% | 1006 hPa | - | - | - | - |
| 1777589225 | 3.89° C | 99% | 1006 hPa | - | - | - | - |
| 1777588324 | 3.89° C | 99% | 1006 hPa | - | - | - | - |
| 1777587423 | 3.89° C | 98% | 1006 hPa | - | - | - | - |
| 1777586522 | 4.44° C | 97% | 1006 hPa | - | - | - | - |
| 1777585621 | 4.44° C | 96% | 1006 hPa | - | - | - | - |
| 1777584719 | 5° C | 96% | 1006 hPa | - | - | - | - |
| 1777583818 | 5° C | 95% | 1006 hPa | - | - | - | - |
| 1777582917 | 5° C | 95% | 1006 hPa | - | - | - | - |
| 1777582016 | 5.56° C | 94% | 1006 hPa | - | - | - | - |
| 1777581115 | 5.56° C | 93% | 1006 hPa | - | - | - | - |
| 1777580213 | 6.11° C | 91% | 1006 hPa | - | - | - | - |
| 1777579312 | 6.11° C | 91% | 1006 hPa | - | - | - | - |
| 1777578411 | 6.67° C | 89% | 1006 hPa | - | - | - | - |
| 1777577510 | 7.22° C | 86% | 1006 hPa | - | - | - | - |
| 1777576609 | 7.78° C | 85% | 1006 hPa | - | - | - | - |
| 1777575708 | 8.33° C | 84% | 1006 hPa | - | - | - | - |
| 1777574806 | 8.89° C | 81% | 1006 hPa | - | - | - | - |
| 1777573905 | 10° C | 77% | 1006 hPa | - | - | - | - |
| 1777573004 | 11.11° C | 72% | 1006 hPa | - | - | - | - |
| 1777572103 | 12.22° C | 68% | 1006 hPa | - | - | - | - |
| 1777571202 | 13.89° C | 58% | 1005 hPa | - | - | - | - |
| 1777570300 | 14.44° C | 58% | 1005 hPa | - | - | - | - |
* Rain since midnight (hover to see other rain measurements)
** Current wind speed in m/s (hover to see current wind gust speed)